createdAt,value
2019-04-28T19:20:15.432Z,15.88
2019-04-28T19:25:19.507Z,16.35
2019-04-28T19:31:18.828Z,21.27
2019-04-28T19:36:22.857Z,16.10
2019-04-28T19:41:26.884Z,14.15
2019-04-28T19:46:30.863Z,13.58
2019-04-28T19:51:34.951Z,11.95
2019-04-28T19:56:40.414Z,12.95
2019-04-28T20:01:44.428Z,12.80
2019-04-28T20:06:48.456Z,13.25
2019-04-28T20:11:52.478Z,12.78
2019-04-28T20:16:56.359Z,11.20
2019-04-28T20:22:00.431Z,10.95
2019-04-28T20:27:04.460Z,10.00
2019-04-28T20:32:08.432Z,10.68
2019-04-28T20:37:17.116Z,9.48
2019-04-28T20:42:40.799Z,10.40
2019-04-28T20:47:44.795Z,9.50
2019-04-28T20:52:48.703Z,9.73
2019-04-28T20:57:52.775Z,9.48
2019-04-28T21:02:56.803Z,8.28
2019-04-28T21:08:00.947Z,8.45
2019-04-28T21:13:04.809Z,8.58
2019-04-28T21:18:08.890Z,8.13
2019-04-28T21:23:12.911Z,8.53
2019-04-28T21:28:16.930Z,9.15
2019-04-28T21:33:20.814Z,10.08
2019-04-28T21:38:24.878Z,8.93
2019-04-28T21:43:30.548Z,12.65
2019-04-28T21:48:38.832Z,10.55
2019-04-28T21:53:42.899Z,10.53
2019-04-28T21:58:47.028Z,9.75
2019-04-28T22:03:51.065Z,10.50
2019-04-28T22:08:55.031Z,8.58
2019-04-28T22:13:59.212Z,9.35
2019-04-28T22:19:03.240Z,8.90
2019-04-28T22:24:08.805Z,9.30
2019-04-28T22:29:13.457Z,8.73
2019-04-28T22:34:17.887Z,8.15
2019-04-28T22:39:21.914Z,8.73
2019-04-28T22:44:25.945Z,7.42
2019-04-28T22:49:29.954Z,8.30
2019-04-28T22:54:35.627Z,6.80
2019-04-28T22:59:44.562Z,6.62
2019-04-28T23:04:52.890Z,6.25
2019-04-28T23:09:56.912Z,6.70
2019-04-28T23:15:00.939Z,7.08
2019-04-28T23:20:09.368Z,6.17
2019-04-28T23:25:13.836Z,6.10
2019-04-28T23:30:35.345Z,6.35
2019-04-28T23:35:39.575Z,5.53
2019-04-28T23:40:48.159Z,5.90
2019-04-28T23:45:52.340Z,5.83
2019-04-28T23:51:04.039Z,5.12
2019-04-28T23:56:08.068Z,5.50
